createdAt,value
2022-08-11T00:00:34.641Z,4.40
2022-08-11T00:03:08.535Z,4.10
2022-08-11T00:05:54.054Z,4.30
2022-08-11T00:08:28.218Z,3.80
2022-08-11T00:11:03.762Z,4.20
2022-08-11T00:13:36.388Z,4.30
2022-08-11T00:16:05.211Z,4.50
2022-08-11T00:18:41.356Z,4.60
2022-08-11T00:21:08.900Z,4.40
2022-08-11T00:23:41.818Z,4.10
2022-08-11T00:26:09.142Z,4.30
2022-08-11T00:28:36.496Z,4.60
2022-08-11T00:31:08.122Z,4.20
2022-08-11T00:33:53.331Z,4.30
2022-08-11T00:36:25.680Z,4.20
2022-08-11T00:38:53.778Z,4.50
2022-08-11T00:41:43.271Z,4.80
2022-08-11T00:44:49.104Z,4.90
2022-08-11T00:47:23.119Z,4.70
2022-08-11T00:50:01.937Z,4.60
2022-08-11T00:52:53.261Z,4.60
2022-08-11T00:55:47.119Z,4.60
2022-08-11T00:58:41.725Z,5.00
2022-08-11T01:01:16.960Z,5.00
2022-08-11T01:03:50.268Z,5.20
2022-08-11T01:06:36.560Z,4.50
2022-08-11T01:09:42.010Z,4.40
2022-08-11T01:12:46.953Z,4.90
2022-08-11T01:15:32.937Z,5.40
2022-08-11T01:18:35.837Z,5.00
2022-08-11T01:21:47.118Z,5.70
2022-08-11T01:24:23.588Z,4.40
2022-08-11T01:27:25.863Z,4.00
2022-08-11T01:30:49.025Z,4.70
2022-08-11T01:33:35.836Z,4.80
2022-08-11T01:36:41.382Z,5.10
2022-08-11T01:39:23.834Z,4.60
2022-08-11T01:42:47.575Z,4.10
2022-08-11T01:45:48.825Z,4.70
2022-08-11T01:48:36.657Z,5.40
2022-08-11T01:51:25.514Z,5.30
2022-08-11T01:54:20.728Z,4.50
2022-08-11T01:56:57.396Z,4.70
2022-08-11T01:59:39.911Z,4.80
2022-08-11T02:02:48.974Z,5.10
2022-08-11T02:05:35.141Z,5.40
2022-08-11T02:08:33.226Z,4.70
2022-08-11T02:11:35.271Z,5.40
2022-08-11T02:14:13.193Z,4.60
2022-08-11T02:17:14.650Z,5.30
2022-08-11T02:20:17.023Z,5.60
2022-08-11T02:23:23.940Z,4.90
2022-08-11T02:26:12.358Z,4.70
2022-08-11T02:28:55.240Z,5.30
2022-08-11T02:32:24.175Z,5.40
2022-08-11T02:34:39.652Z,5.40
2022-08-11T02:37:25.230Z,5.10
2022-08-11T02:40:03.243Z,4.70
2022-08-11T02:42:46.547Z,5.10
2022-08-11T02:45:29.282Z,5.10
2022-08-11T02:48:42.922Z,5.30
2022-08-11T02:51:17.581Z,4.60
2022-08-11T02:53:56.210Z,4.70
2022-08-11T02:56:28.748Z,5.10
2022-08-11T02:59:45.462Z,5.50
2022-08-11T03:02:31.867Z,5.50
2022-08-11T03:04:59.223Z,4.70
2022-08-11T03:07:35.793Z,5.50
2022-08-11T03:10:07.344Z,4.60
2022-08-11T03:13:01.532Z,5.10
2022-08-11T03:16:08.104Z,5.20
2022-08-11T03:18:41.643Z,4.80
2022-08-11T03:21:23.582Z,4.50
2022-08-11T03:24:04.330Z,4.60
2022-08-11T03:30:18.280Z,5.10
2022-08-11T03:33:08.640Z,4.80
2022-08-11T03:36:17.462Z,4.30
2022-08-11T03:39:02.030Z,4.50
2022-08-11T03:42:04.235Z,4.90
2022-08-11T03:44:37.189Z,4.80
2022-08-11T03:47:18.771Z,4.90
2022-08-11T03:50:07.632Z,4.40
2022-08-11T03:52:53.829Z,4.90
2022-08-11T03:58:14.751Z,4.50
2022-08-11T04:01:06.376Z,4.40
2022-08-11T04:03:52.368Z,4.30
2022-08-11T04:06:48.295Z,4.30
2022-08-11T04:09:34.498Z,4.20
2022-08-11T04:15:23.988Z,4.70
2022-08-11T04:17:58.227Z,4.50
2022-08-11T04:20:59.759Z,4.60
2022-08-11T04:24:13.239Z,4.50
2022-08-11T04:26:57.041Z,4.40
2022-08-11T04:29:36.003Z,5.00
2022-08-11T04:32:47.147Z,4.60
2022-08-11T04:35:23.790Z,4.40
2022-08-11T04:38:12.785Z,4.10
2022-08-11T04:41:19.972Z,4.50
2022-08-11T04:44:06.388Z,4.70
2022-08-11T04:46:48.499Z,4.50
2022-08-11T04:49:53.411Z,4.40
2022-08-11T04:52:59.580Z,4.80
2022-08-11T04:55:54.890Z,4.90
2022-08-11T04:59:18.773Z,4.70
2022-08-11T05:02:24.325Z,4.50
2022-08-11T05:05:28.754Z,4.50
2022-08-11T05:08:15.249Z,4.50
2022-08-11T05:11:04.825Z,5.10
2022-08-11T05:13:53.788Z,5.70
2022-08-11T05:16:54.321Z,4.70
2022-08-11T05:19:40.621Z,4.50
2022-08-11T05:22:27.884Z,4.60
2022-08-11T05:26:44.213Z,4.40
2022-08-11T05:28:39.661Z,5.10
2022-08-11T05:31:29.442Z,4.80
2022-08-11T05:34:19.320Z,4.70
2022-08-11T05:36:52.616Z,5.40
2022-08-11T05:39:46.043Z,5.30
2022-08-11T05:42:32.250Z,4.50
2022-08-11T05:45:20.532Z,4.60
2022-08-11T05:48:09.798Z,4.70
2022-08-11T05:50:55.901Z,5.50
2022-08-11T05:53:45.852Z,5.10
2022-08-11T05:56:17.122Z,5.30
2022-08-11T05:58:45.473Z,5.40
2022-08-11T06:01:14.533Z,4.80
2022-08-11T06:04:03.265Z,5.30
2022-08-11T06:06:30.921Z,4.90
2022-08-11T06:08:59.309Z,4.40
2022-08-11T06:11:43.615Z,5.40
2022-08-11T06:14:13.467Z,4.60
2022-08-11T06:16:42.157Z,5.10
2022-08-11T06:19:10.027Z,5.00
2022-08-11T06:21:37.990Z,5.60
2022-08-11T06:24:11.678Z,4.70
2022-08-11T06:26:55.065Z,5.40
2022-08-11T06:29:46.882Z,4.80
2022-08-11T06:32:14.513Z,5.00
2022-08-11T06:35:16.582Z,5.90
2022-08-11T06:37:47.175Z,5.60
2022-08-11T06:40:36.895Z,5.40
2022-08-11T06:43:19.099Z,5.10
2022-08-11T06:45:46.553Z,5.40
2022-08-11T06:48:21.508Z,5.00
2022-08-11T06:51:10.861Z,5.70
2022-08-11T06:53:56.360Z,5.70
2022-08-11T07:00:02.532Z,5.10
2022-08-11T07:03:04.312Z,5.20
2022-08-11T07:05:54.096Z,5.70
2022-08-11T07:09:11.827Z,5.10
2022-08-11T07:12:12.857Z,5.00
2022-08-11T07:15:11.453Z,5.30
2022-08-11T07:17:43.430Z,5.60
2022-08-11T07:20:46.805Z,5.10
2022-08-11T07:23:33.108Z,5.50
2022-08-11T07:26:19.303Z,5.50
2022-08-11T07:28:56.798Z,6.10
2022-08-11T07:31:37.152Z,6.10
2022-08-11T07:34:19.663Z,5.20
2022-08-11T07:37:04.017Z,5.70
2022-08-11T07:39:34.750Z,5.30
2022-08-11T07:42:06.614Z,5.90
2022-08-11T07:44:54.147Z,5.70
2022-08-11T07:47:40.551Z,6.20
2022-08-11T07:50:28.176Z,5.60
2022-08-11T07:52:56.656Z,5.90
2022-08-11T07:55:49.009Z,6.00
2022-08-11T07:58:44.072Z,5.10
2022-08-11T08:01:44.960Z,5.60
2022-08-11T08:04:32.060Z,5.60
2022-08-11T08:07:18.055Z,5.60
2022-08-11T08:10:04.563Z,5.10
2022-08-11T08:12:50.861Z,5.90
2022-08-11T08:15:36.954Z,5.80
2022-08-11T08:18:20.742Z,5.90
2022-08-11T08:20:55.127Z,6.10
2022-08-11T08:23:34.026Z,5.90
2022-08-11T08:26:04.704Z,5.80
2022-08-11T08:28:32.791Z,5.70
2022-08-11T08:31:00.923Z,5.80
2022-08-11T08:33:31.653Z,6.10
2022-08-11T08:36:14.369Z,6.10
2022-08-11T08:38:42.850Z,5.90
2022-08-11T08:41:13.384Z,7.10
2022-08-11T08:43:47.559Z,6.50
2022-08-11T08:46:16.487Z,5.50
2022-08-11T08:48:43.948Z,6.10
2022-08-11T08:51:58.627Z,5.90
2022-08-11T08:54:22.180Z,6.30
2022-08-11T08:56:49.740Z,6.50
2022-08-11T08:59:17.091Z,6.60
2022-08-11T09:01:51.569Z,6.40
2022-08-11T09:04:21.090Z,6.80
2022-08-11T09:06:52.367Z,6.40
2022-08-11T09:09:21.156Z,6.00
2022-08-11T09:11:51.752Z,7.20
2022-08-11T09:14:52.020Z,6.10
2022-08-11T09:17:20.603Z,6.40
2022-08-11T09:19:54.143Z,6.80
2022-08-11T09:23:03.227Z,6.60
2022-08-11T09:25:54.244Z,6.80
2022-08-11T09:28:22.290Z,6.40
2022-08-11T09:30:55.509Z,7.40
2022-08-11T09:33:24.092Z,6.70
2022-08-11T09:35:52.221Z,6.60
2022-08-11T09:38:40.104Z,6.90
2022-08-11T09:41:09.175Z,6.50
2022-08-11T09:44:04.326Z,6.70
2022-08-11T09:46:33.503Z,6.80
2022-08-11T09:49:01.479Z,8.20
2022-08-11T09:51:31.514Z,7.20
2022-08-11T09:54:06.937Z,7.10
2022-08-11T09:56:54.056Z,6.90
2022-08-11T09:59:22.128Z,7.60
2022-08-11T10:01:56.970Z,6.90
2022-08-11T10:04:47.730Z,7.20
2022-08-11T10:07:16.006Z,7.30
2022-08-11T10:09:53.428Z,7.50
2022-08-11T10:12:28.363Z,7.00
2022-08-11T10:15:27.362Z,7.00
2022-08-11T10:18:16.737Z,7.10
2022-08-11T10:20:44.209Z,7.60
2022-08-11T10:23:31.413Z,7.20
2022-08-11T10:26:17.608Z,7.10
2022-08-11T10:29:10.037Z,7.20
2022-08-11T10:31:51.140Z,7.30
2022-08-11T10:34:27.358Z,7.00
2022-08-11T10:36:57.515Z,8.30
2022-08-11T10:39:24.817Z,7.30
2022-08-11T10:42:20.870Z,7.30
2022-08-11T10:44:58.699Z,7.50
2022-08-11T10:47:47.749Z,8.20
2022-08-11T10:50:35.903Z,7.70
2022-08-11T10:53:22.107Z,7.40
2022-08-11T10:56:08.307Z,8.00
2022-08-11T10:58:49.373Z,7.10
2022-08-11T11:01:32.990Z,8.00
2022-08-11T11:04:12.260Z,7.70
2022-08-11T11:06:55.068Z,7.80
2022-08-11T11:09:26.194Z,7.70
2022-08-11T11:12:13.634Z,8.00
2022-08-11T11:15:01.886Z,7.00
2022-08-11T11:17:49.717Z,6.70
2022-08-11T11:20:36.357Z,8.30
2022-08-11T11:23:17.915Z,7.90
2022-08-11T11:26:15.011Z,7.60
2022-08-11T11:29:21.641Z,7.40
2022-08-11T11:31:52.067Z,8.50
2022-08-11T11:34:53.090Z,7.60
2022-08-11T11:37:23.053Z,7.90
2022-08-11T11:39:50.544Z,8.10
2022-08-11T11:42:18.765Z,8.40
2022-08-11T11:44:46.426Z,8.20
2022-08-11T11:47:14.090Z,8.90
2022-08-11T11:49:44.397Z,7.40
2022-08-11T11:52:17.472Z,8.30
2022-08-11T11:54:45.780Z,7.60
2022-08-11T11:57:31.670Z,8.20
2022-08-11T12:02:44.930Z,8.90
2022-08-11T12:05:12.374Z,8.50
2022-08-11T12:08:12.334Z,8.90
2022-08-11T12:10:45.587Z,9.20
2022-08-11T12:13:31.686Z,8.00
2022-08-11T12:16:31.853Z,7.20
2022-08-11T12:18:56.861Z,9.00
2022-08-11T12:21:24.370Z,8.20
2022-08-11T12:24:10.258Z,9.10
2022-08-11T12:29:40.022Z,8.90
2022-08-11T12:32:09.391Z,8.70
2022-08-11T12:34:36.951Z,8.60
2022-08-11T12:37:06.110Z,7.50
2022-08-11T12:40:16.310Z,8.70
2022-08-11T12:43:00.565Z,9.30
2022-08-11T12:45:31.968Z,8.00
2022-08-11T12:48:57.395Z,9.90
2022-08-11T12:52:11.382Z,9.40
2022-08-11T12:57:37.185Z,8.50
2022-08-11T13:00:25.469Z,9.30
2022-08-11T13:03:11.762Z,8.50
2022-08-11T13:05:44.320Z,8.90
2022-08-11T13:08:15.608Z,8.70
2022-08-11T13:11:02.710Z,10.60
2022-08-11T13:13:53.587Z,10.10
2022-08-11T13:16:18.719Z,9.00
2022-08-11T13:18:46.482Z,8.90
2022-08-11T13:21:20.731Z,9.30
2022-08-11T13:24:01.752Z,10.40
2022-08-11T13:26:47.226Z,9.60
2022-08-11T13:29:21.574Z,9.70
2022-08-11T13:31:50.576Z,9.80
2022-08-11T13:34:18.605Z,10.00
2022-08-11T13:36:49.737Z,10.70
2022-08-11T13:39:17.180Z,9.50
2022-08-11T13:41:45.622Z,9.30
2022-08-11T13:44:19.121Z,10.20
2022-08-11T13:46:49.555Z,9.70
2022-08-11T13:49:20.692Z,8.80
2022-08-11T13:51:48.563Z,10.00
2022-08-11T13:54:19.145Z,10.00
2022-08-11T13:56:50.128Z,9.80
2022-08-11T13:59:23.124Z,10.30
2022-08-11T14:02:22.167Z,9.20
2022-08-11T14:05:01.963Z,9.10
2022-08-11T14:07:37.979Z,9.30
2022-08-11T14:10:07.249Z,8.80
2022-08-11T14:12:54.955Z,8.60
2022-08-11T14:15:35.424Z,9.30
2022-08-11T14:18:07.849Z,10.30
2022-08-11T14:20:56.343Z,9.80
2022-08-11T14:23:27.902Z,9.70
2022-08-11T14:26:14.503Z,9.60
2022-08-11T14:28:45.065Z,9.10
2022-08-11T14:31:16.688Z,10.20
2022-08-11T14:33:59.282Z,9.10
2022-08-11T14:36:38.333Z,8.90
2022-08-11T14:39:13.747Z,9.00
2022-08-11T14:45:04.706Z,9.40
2022-08-11T14:47:38.181Z,9.40
2022-08-11T14:50:12.298Z,8.90
2022-08-11T14:52:43.845Z,9.60
2022-08-11T14:55:29.664Z,9.90
2022-08-11T15:00:24.896Z,9.00
2022-08-11T15:03:11.279Z,9.80
2022-08-11T15:06:13.150Z,9.70
2022-08-11T15:08:56.277Z,9.40
2022-08-11T15:11:44.830Z,9.80
2022-08-11T15:14:12.596Z,10.20
2022-08-11T15:17:02.885Z,10.00
2022-08-11T15:19:36.692Z,9.40
2022-08-11T15:22:29.166Z,10.10
2022-08-11T15:24:59.237Z,9.40
2022-08-11T15:27:45.452Z,10.70
2022-08-11T15:30:33.109Z,9.50
2022-08-11T15:33:28.939Z,13.40
2022-08-11T15:36:15.621Z,8.70
2022-08-11T15:39:20.688Z,9.30
2022-08-11T15:42:28.675Z,8.90
2022-08-11T15:47:46.084Z,9.30
2022-08-11T15:52:54.238Z,9.80
2022-08-11T15:55:21.793Z,10.50
2022-08-11T15:58:09.116Z,9.50
2022-08-11T16:01:03.936Z,10.20
2022-08-11T16:04:12.644Z,10.00
2022-08-11T16:06:58.226Z,10.00
2022-08-11T16:09:51.658Z,9.50
2022-08-11T16:12:28.757Z,11.00
2022-08-11T16:15:20.931Z,9.90
2022-08-11T16:17:56.666Z,10.10
2022-08-11T16:20:25.354Z,10.00
2022-08-11T16:22:57.142Z,9.80
2022-08-11T16:26:30.314Z,10.60
2022-08-11T16:28:17.937Z,10.40
2022-08-11T16:30:46.736Z,10.80
2022-08-11T16:33:48.428Z,10.80
2022-08-11T16:36:20.455Z,11.50
2022-08-11T16:38:47.839Z,11.80
2022-08-11T16:41:37.685Z,11.50
2022-08-11T16:44:32.498Z,11.60
2022-08-11T16:47:06.877Z,12.60
2022-08-11T16:49:43.149Z,11.20
2022-08-11T16:52:18.102Z,11.70
2022-08-11T16:54:48.029Z,12.20
2022-08-11T16:57:44.561Z,11.80
2022-08-11T17:00:15.583Z,12.10
2022-08-11T17:03:09.217Z,11.20
2022-08-11T17:05:56.287Z,12.90
2022-08-11T17:08:54.265Z,12.00
2022-08-11T17:11:48.240Z,12.00
2022-08-11T17:14:17.646Z,12.30
2022-08-11T17:17:07.947Z,12.60
2022-08-11T17:20:42.469Z,14.70
2022-08-11T17:22:41.470Z,14.40
2022-08-11T17:25:09.222Z,13.50
2022-08-11T17:27:36.886Z,14.20
2022-08-11T17:30:08.149Z,13.60
2022-08-11T17:33:00.693Z,14.90
2022-08-11T17:35:33.625Z,13.40
2022-08-11T17:38:22.011Z,13.60
2022-08-11T17:41:22.764Z,13.90
2022-08-11T17:44:10.542Z,14.10
2022-08-11T17:46:56.931Z,13.10
2022-08-11T17:49:24.248Z,13.50
2022-08-11T17:52:10.337Z,13.60
2022-08-11T17:54:57.047Z,13.00
2022-08-11T17:57:47.537Z,13.00
2022-08-11T18:00:15.819Z,12.60
2022-08-11T18:03:03.143Z,13.10
2022-08-11T18:05:34.304Z,13.00
2022-08-11T18:08:24.481Z,12.50
2022-08-11T18:11:10.630Z,11.20
2022-08-11T18:13:57.902Z,11.50
2022-08-11T18:16:43.992Z,11.60
2022-08-11T18:19:30.734Z,11.30
2022-08-11T18:22:34.408Z,10.40
2022-08-11T18:25:34.130Z,10.20
2022-08-11T18:28:23.085Z,10.70
2022-08-11T18:31:13.092Z,10.20
2022-08-11T18:34:07.480Z,9.80
2022-08-11T18:37:05.235Z,9.30
2022-08-11T18:39:56.066Z,9.50
2022-08-11T18:42:42.854Z,10.10
2022-08-11T18:45:30.376Z,9.70
2022-08-11T18:48:27.776Z,9.40
2022-08-11T18:51:29.733Z,9.30
2022-08-11T18:54:20.609Z,13.40
2022-08-11T18:57:07.113Z,10.20
2022-08-11T18:59:56.080Z,9.50
2022-08-11T19:02:48.633Z,10.00
2022-08-11T19:06:32.059Z,10.70
2022-08-11T19:08:47.336Z,10.00
2022-08-11T19:11:33.425Z,10.40
2022-08-11T19:14:20.648Z,10.60
2022-08-11T19:17:07.064Z,10.20
2022-08-11T19:19:53.457Z,10.30
2022-08-11T19:25:26.463Z,10.50
2022-08-11T19:28:12.867Z,11.10
2022-08-11T19:30:59.678Z,11.20
2022-08-11T19:34:03.091Z,10.90
2022-08-11T19:36:52.147Z,11.20
2022-08-11T19:39:38.821Z,11.60
2022-08-11T19:42:28.325Z,11.60
2022-08-11T19:45:14.315Z,11.50
2022-08-11T19:51:06.372Z,11.40
2022-08-11T19:53:52.841Z,10.50
2022-08-11T19:56:38.667Z,12.30
2022-08-11T19:59:25.481Z,10.60
2022-08-11T20:02:13.388Z,11.90
2022-08-11T20:05:01.354Z,11.80
2022-08-11T20:07:48.265Z,15.10
2022-08-11T20:10:36.201Z,11.70
2022-08-11T20:13:22.606Z,12.20
2022-08-11T20:16:13.105Z,10.60
2022-08-11T20:19:01.044Z,11.10
2022-08-11T20:21:47.623Z,10.60
2022-08-11T20:24:33.843Z,10.30
2022-08-11T20:27:24.929Z,10.90
2022-08-11T20:30:12.690Z,10.00
2022-08-11T20:33:00.429Z,10.20
2022-08-11T20:35:46.518Z,10.20
2022-08-11T20:41:20.257Z,10.60
2022-08-11T20:44:09.074Z,10.30
2022-08-11T20:46:57.465Z,10.00
2022-08-11T20:49:53.625Z,9.20
2022-08-11T20:52:47.169Z,10.20
2022-08-11T20:55:46.172Z,10.00
2022-08-11T21:01:45.870Z,10.30
2022-08-11T21:04:32.925Z,9.30
2022-08-11T21:07:29.036Z,9.00
2022-08-11T21:13:25.823Z,9.00
2022-08-11T21:16:26.323Z,8.50
2022-08-11T21:19:59.628Z,8.40
2022-08-11T21:22:59.037Z,9.00
2022-08-11T21:25:59.070Z,8.40
2022-08-11T21:28:46.282Z,7.90
2022-08-11T21:31:32.686Z,8.30
2022-08-11T21:34:19.087Z,8.80
2022-08-11T21:37:05.020Z,9.10
2022-08-11T21:39:51.651Z,8.40
2022-08-11T21:42:37.969Z,9.00
2022-08-11T21:45:25.616Z,7.70
2022-08-11T21:48:11.928Z,9.30
2022-08-11T21:50:58.111Z,9.00
2022-08-11T21:53:45.335Z,9.00
2022-08-11T21:56:31.634Z,8.30
2022-08-11T21:59:17.726Z,8.70
2022-08-11T22:04:51.871Z,9.00
2022-08-11T22:07:39.388Z,8.40
2022-08-11T22:10:40.210Z,8.80
2022-08-11T22:13:28.170Z,8.60
2022-08-11T22:16:20.306Z,9.50
2022-08-11T22:19:06.502Z,8.70
2022-08-11T22:22:01.257Z,8.20
2022-08-11T22:24:51.946Z,8.70
2022-08-11T22:27:38.918Z,8.40
2022-08-11T22:30:26.553Z,8.20
2022-08-11T22:33:15.062Z,8.50
2022-08-11T22:36:02.739Z,8.60
2022-08-11T22:38:50.158Z,9.10
2022-08-11T22:41:36.355Z,8.00
2022-08-11T22:47:09.981Z,9.00
2022-08-11T22:49:57.476Z,8.30
2022-08-11T22:52:45.755Z,8.30
2022-08-11T22:55:31.755Z,8.60
2022-08-11T22:58:18.351Z,8.20
2022-08-11T23:01:04.806Z,8.50
2022-08-11T23:03:51.053Z,8.20
2022-08-11T23:06:40.424Z,8.10
2022-08-11T23:09:27.236Z,8.90
2022-08-11T23:12:13.639Z,8.40
2022-08-11T23:14:59.738Z,7.80
2022-08-11T23:20:36.797Z,7.90
2022-08-11T23:23:28.257Z,8.00
2022-08-11T23:26:14.561Z,8.20
2022-08-11T23:29:05.386Z,8.10
2022-08-11T23:31:53.711Z,8.20
2022-08-11T23:35:38.730Z,8.60
2022-08-11T23:38:09.419Z,9.10
2022-08-11T23:40:57.665Z,8.90
2022-08-11T23:43:44.067Z,9.30
2022-08-11T23:46:30.265Z,8.50
2022-08-11T23:49:20.661Z,9.00
2022-08-11T23:52:07.272Z,9.10
2022-08-11T23:54:54.077Z,8.80
2022-08-11T23:57:47.509Z,8.50
